Lakeview Park, Washington
Current Conditions -  °F | °C
As of 9:53 AM on Saturday 25 Oct 2014 (Local Time) from KEPH Reporting Station
Overcast Overcast  
Wind Chill: 52°   Ceiling: 12000
Heat Index: 52°   Visibility: 10mi
Dew Point: 43°   Wind: 10mph
Humidity: 71%   Direction: 350°N
Pressure: 29.62"   Gusts: NA
Location:  47.4314°N, 119.485°W
Report Text: KEPH 251653Z AUTO 35009KT 10SM FEW026 OVC120 11/06 A2962 RMK AO2 SLP032 T01110061
Loading
Personal Weather Stations






























Interactive Weather Map
Tropical Storm Tracking
New forecast layout! Learn more

10-Day Weather Forecast

Advertisements
Track Severe Weather on mobile